page 5218 of 1011568 registered users

eBook PostsUsers

  1. 0resulttoast01 registered @ 2013-01-03 08:17:51, last login @ 2013-01-03 08:17:51
  2. 0lion64order registered @ 2013-01-03 08:19:18, last login @ 2013-01-03 08:39:28
  3. 0tankerpants3 registered @ 2013-01-03 08:19:28, last login @ 2013-01-03 08:19:28
  4. 0cellaractive1 registered @ 2013-01-03 08:19:48, last login @ 2013-01-03 08:19:48
  5. 0flare6jar registered @ 2013-01-03 08:20:11, last login @ 2013-01-03 08:20:11
  6. 0paulsail72 registered @ 2013-01-03 08:20:33, last login @ 2013-01-03 08:20:33
  7. 0duckarm8 registered @ 2013-01-03 08:22:11, last login @ 2013-01-03 08:22:11
  8. 0collar6white registered @ 2013-01-03 08:22:39, last login @ 2013-01-03 08:38:08
  9. 0flareaugust3 registered @ 2013-01-03 08:23:54, last login @ 2013-01-03 08:23:54
  10. 0panrefund75 registered @ 2013-01-03 08:23:57, last login @ 2013-01-03 08:23:57
  11. 0carpcoin06 registered @ 2013-01-03 08:24:58, last login @ 2013-01-03 08:24:58
  12. 0alloysprout37 registered @ 2013-01-03 08:27:22, last login @ 2013-01-03 08:27:22
  13. 0frown1octave registered @ 2013-01-03 08:29:19, last login @ 2013-01-03 08:49:17
  14. 0gojiobami registered @ 2013-01-03 08:29:29, last login @ 2013-01-03 08:29:29
  15. 0liru0929 registered @ 2013-01-03 08:30:36, last login @ 2013-01-03 08:30:36
  16. 0pizza25syrup registered @ 2013-01-03 08:31:29, last login @ 2013-01-03 08:31:29
  17. 0icicle05puffin registered @ 2013-01-03 08:31:55, last login @ 2013-01-03 08:31:55
  18. 0pricesaw18 registered @ 2013-01-03 08:32:41, last login @ 2013-01-03 08:32:41
  19. 0club09buffet registered @ 2013-01-03 08:33:21, last login @ 2013-01-03 08:33:21
  20. 0room71road registered @ 2013-01-03 08:34:03, last login @ 2013-01-03 08:34:03
  21. 0mouth22spring registered @ 2013-01-03 08:34:04, last login @ 2013-01-03 08:34:04
  22. 0branch8result registered @ 2013-01-03 08:34:12, last login @ 2013-01-03 08:34:12
  23. 0essenjewBus registered @ 2013-01-03 08:34:20, last login @ 2013-01-03 08:34:20
  24. 0bakery81twist registered @ 2013-01-03 08:34:23, last login @ 2013-01-03 08:34:23
  25. 0yarn57wolf registered @ 2013-01-03 08:34:47, last login @ 2013-01-03 08:34:47
  26. 0snake12scene registered @ 2013-01-03 08:36:13, last login @ 2013-01-03 08:36:13
  27. 0svrsvr registered @ 2013-01-03 08:37:05, last login @ 2013-01-03 08:37:05
  28. 0railmoney0 registered @ 2013-01-03 08:37:12, last login @ 2013-01-03 08:37:12
  29. 0stln registered @ 2013-01-03 08:37:26, last login @ 2013-01-03 08:37:26
  30. 0yogurtfire3 registered @ 2013-01-03 08:37:33, last login @ 2013-01-03 08:37:33
  31. 0denimchess6 registered @ 2013-01-03 08:38:05, last login @ 2013-01-03 08:38:05
  32. 0state35ocelot registered @ 2013-01-03 08:38:36, last login @ 2013-01-03 08:38:36
  33. 0bottomstitch8 registered @ 2013-01-03 08:40:18, last login @ 2013-01-03 08:40:18
  34. 0tonoil0 registered @ 2013-01-03 08:40:31, last login @ 2013-01-03 08:40:31
  35. 0grainfifth14 registered @ 2013-01-03 08:40:41, last login @ 2013-01-03 08:40:41
  36. 0beliefchance0 registered @ 2013-01-03 08:40:53, last login @ 2013-01-03 08:40:53
  37. 0toilet1israel registered @ 2013-01-03 08:41:23, last login @ 2013-01-03 08:41:23
  38. 0blackradar57 registered @ 2013-01-03 08:41:26, last login @ 2013-01-03 08:41:26
  39. 0fieldaction0 registered @ 2013-01-03 08:42:08, last login @ 2013-01-03 08:42:08
  40. 0pajamatemper3 registered @ 2013-01-03 08:43:32, last login @ 2013-01-03 08:43:32
  41. 0menuburn3 registered @ 2013-01-03 08:47:36, last login @ 2013-01-03 08:47:36
  42. 0quiver13wax registered @ 2013-01-03 08:49:03, last login @ 2013-01-03 08:49:03
  43. 0brabath0 registered @ 2013-01-03 08:49:16, last login @ 2013-01-03 08:49:16
  44. 0cousinshame0 registered @ 2013-01-03 08:51:20, last login @ 2013-01-03 08:51:20
  45. 0hood6appeal registered @ 2013-01-03 08:52:32, last login @ 2013-01-03 08:52:32
  46. 0door1chard registered @ 2013-01-03 08:54:22, last login @ 2013-01-03 08:54:22
  47. 0lungerocket03 registered @ 2013-01-03 08:54:32, last login @ 2013-01-03 08:54:32
  48. 0ocelot45larch registered @ 2013-01-03 08:55:20, last login @ 2013-01-03 08:55:20
  49. 0circlebamboo2 registered @ 2013-01-03 08:56:52, last login @ 2013-01-03 08:56:52
  50. 0corkraven2 registered @ 2013-01-03 08:57:08, last login @ 2013-01-03 08:57:08
  51. 0swiss7robin registered @ 2013-01-03 08:57:44, last login @ 2013-01-03 08:57:44
  52. 0august2cream registered @ 2013-01-03 08:59:48, last login @ 2013-01-03 08:59:48
  53. 0beaver0thrill registered @ 2013-01-03 08:59:49, last login @ 2013-01-03 08:59:49
  54. 0camerafowl73 registered @ 2013-01-03 09:00:13, last login @ 2013-01-03 09:00:13
  55. 0beauty88dew registered @ 2013-01-03 09:01:56, last login @ 2013-01-03 09:01:56
  56. 0riflenurse89 registered @ 2013-01-03 09:02:45, last login @ 2013-01-03 09:02:45
  57. 0glider47budget registered @ 2013-01-03 09:03:25, last login @ 2013-01-03 09:03:25
  58. 0cougar14hammer registered @ 2013-01-03 09:04:31, last login @ 2013-01-03 09:04:31
  59. 0cat7coil registered @ 2013-01-03 09:04:48, last login @ 2013-01-03 09:04:48
  60. 0alley4north registered @ 2013-01-03 09:05:53, last login @ 2013-01-03 09:05:53
  61. 0margin35tune registered @ 2013-01-03 09:07:23, last login @ 2013-01-03 09:35:23
  62. 0pruner9africa registered @ 2013-01-03 09:08:02, last login @ 2013-01-03 09:45:55
  63. 0switch60felony registered @ 2013-01-03 09:09:58, last login @ 2013-01-03 09:32:54
  64. 0windpanty2 registered @ 2013-01-03 09:11:26, last login @ 2013-01-03 09:30:25
  65. 0violatrain7 registered @ 2013-01-03 09:12:22, last login @ 2013-01-03 09:12:22
  66. 0curlerjune46 registered @ 2013-01-03 09:12:25, last login @ 2013-01-03 09:12:25
  67. 0owlgrowth66 registered @ 2013-01-03 09:14:37, last login @ 2013-01-03 09:14:37
  68. 0bettyvacuum38 registered @ 2013-01-03 09:15:32, last login @ 2013-01-03 09:15:32
  69. 0holepriest34 registered @ 2013-01-03 09:17:27, last login @ 2013-01-03 09:17:27
  70. 0grill4sauce registered @ 2013-01-03 09:19:16, last login @ 2013-01-03 09:19:16
  71. 0perch45dahlia registered @ 2013-01-03 09:19:26, last login @ 2013-01-03 10:00:16
  72. 0timkingkraw registered @ 2013-01-03 09:20:16, last login @ 2013-01-03 09:20:16
  73. 0areafoam23 registered @ 2013-01-03 09:20:56, last login @ 2013-01-03 09:20:56
  74. 0rubbershock54 registered @ 2013-01-03 09:21:00, last login @ 2013-01-03 09:42:28
  75. 0beaver2whip registered @ 2013-01-03 09:21:25, last login @ 2013-01-03 09:21:25
  76. 0bullshovel4 registered @ 2013-01-03 09:21:33, last login @ 2013-01-03 09:21:33
  77. 0branchcare4 registered @ 2013-01-03 09:21:39, last login @ 2013-01-03 09:21:39
  78. 0barge10joseph registered @ 2013-01-03 09:21:48, last login @ 2013-01-03 09:21:48
  79. 0hammerred11 registered @ 2013-01-03 09:22:01, last login @ 2013-01-03 09:22:01
  80. 0deantovar145 registered @ 2013-01-03 09:23:08, last login @ 2013-01-03 09:23:08
  81. 0shovel8sauce registered @ 2013-01-03 09:25:27, last login @ 2013-01-03 09:25:27
  82. 0shell2judo registered @ 2013-01-03 09:27:53, last login @ 2013-01-03 09:27:53
  83. 0ink5nerve registered @ 2013-01-03 09:28:22, last login @ 2013-01-03 09:28:22
  84. 0fire6karate registered @ 2013-01-03 09:28:48, last login @ 2013-01-03 09:28:48
  85. 0bubble95design registered @ 2013-01-03 09:29:15, last login @ 2013-01-03 09:29:15
  86. 0air69oil registered @ 2013-01-03 09:29:31, last login @ 2013-01-03 09:29:31
  87. 0studylier99 registered @ 2013-01-03 09:29:59, last login @ 2013-01-03 09:29:59
  88. 0india82low registered @ 2013-01-03 09:30:45, last login @ 2013-01-03 09:30:45
  89. 0tower6care registered @ 2013-01-03 09:30:56, last login @ 2013-01-03 09:50:19
  90. 0hand18lentil registered @ 2013-01-03 09:31:13, last login @ 2013-01-03 09:31:13
  91. 0hammerlentil6 registered @ 2013-01-03 09:31:17, last login @ 2013-01-03 09:31:17
  92. 0moatfight2 registered @ 2013-01-03 09:31:17, last login @ 2013-01-03 09:31:17
  93. 0museum43spider registered @ 2013-01-03 09:32:48, last login @ 2013-01-03 09:47:15
  94. 0pingprofit6 registered @ 2013-01-03 09:33:16, last login @ 2013-01-03 09:33:16
  95. 0farmer78dream registered @ 2013-01-03 09:34:51, last login @ 2013-01-03 09:34:51
  96. 0gum3cross registered @ 2013-01-03 09:34:53, last login @ 2013-01-03 09:34:53
  97. 0agendahome8 registered @ 2013-01-03 09:35:48, last login @ 2013-01-03 09:35:48
  98. 0broker1cloth registered @ 2013-01-03 09:36:07, last login @ 2013-01-03 09:36:07
  99. 0pencil0beat registered @ 2013-01-03 09:36:51, last login @ 2013-01-03 09:36:51
  100. 0masslily85 registered @ 2013-01-03 09:37:17, last login @ 2013-01-03 09:37:17
  101. 0day01weight registered @ 2013-01-03 09:37:36, last login @ 2013-01-03 09:37:36

More...

[5228] [5227] [5226] [5225] [5224] [5223] [5222] [5221] [5220] [5219] [5218] [5217] [5216] [5215] [5214] [5213] [5212] [5211] [5210] [5209] ...[1]
Back to Top